Kislovodsk, Russia
Current Conditions -  °F | °C
As of 11:00 AM on Monday 24 Nov 2014 (Local Time) from URMM Reporting Station
Overcast Overcast  
Wind Chill: 15°   Ceiling: 800
Heat Index: 27°   Visibility: 4mi
Dew Point: 23°   Wind: 13mph
Humidity: 86%   Direction: 90°E
Pressure: 30.39"   Gusts: 20mph
Location:  43.91°N, 42.72°E
Report Text: URMM 240800Z 09006G09MPS 7000 OVC008 M03/M05 Q1029 R12/CLRD70NOSIG RMK MT OBSC QFE743/0991
Loading
Personal Weather Stations






























Interactive Weather Map New forecast layout! Learn more

10-Day Weather Forecast

Advertisements
Track Severe Weather on mobile